createdAt,value
2018-11-20T00:01:03.976Z,5.32
2018-11-20T00:03:58.752Z,5.28
2018-11-20T00:06:50.397Z,5.39
2018-11-20T00:09:39.287Z,5.60
2018-11-20T00:12:39.974Z,5.41
2018-11-20T00:15:21.049Z,5.43
2018-11-20T00:18:12.870Z,5.42
2018-11-20T00:21:03.370Z,5.48
2018-11-20T00:23:48.073Z,5.59
2018-11-20T00:26:35.337Z,5.50
2018-11-20T00:29:23.495Z,5.33
2018-11-20T00:32:07.135Z,5.37
2018-11-20T00:34:54.399Z,5.56
2018-11-20T00:37:55.268Z,5.52
2018-11-20T00:40:46.738Z,5.36
2018-11-20T00:43:33.947Z,5.48
2018-11-20T00:46:22.080Z,5.41
2018-11-20T00:49:12.655Z,5.53
2018-11-20T00:52:00.382Z,5.31
2018-11-20T00:54:46.552Z,5.58
2018-11-20T00:57:35.421Z,5.76
2018-11-20T01:00:27.486Z,5.45
2018-11-20T01:03:16.327Z,5.46
2018-11-20T01:06:08.309Z,5.51
2018-11-20T01:09:07.552Z,5.49
2018-11-20T01:11:59.233Z,5.55
2018-11-20T01:14:51.301Z,5.49
2018-11-20T01:17:28.620Z,5.29
2018-11-20T01:20:17.457Z,5.56
2018-11-20T01:23:04.971Z,5.68
2018-11-20T01:26:02.914Z,5.48
2018-11-20T01:29:00.377Z,5.56
2018-11-20T01:31:42.114Z,5.40
2018-11-20T01:34:42.954Z,5.43
2018-11-20T01:39:18.926Z,5.62
2018-11-20T01:42:04.808Z,5.77
2018-11-20T01:44:58.619Z,5.88
2018-11-20T01:47:52.555Z,5.64
2018-11-20T01:50:40.612Z,5.59
2018-11-20T01:53:31.388Z,5.68
2018-11-20T01:56:07.530Z,5.46
2018-11-20T01:58:52.139Z,5.65
2018-11-20T02:01:34.639Z,5.61
2018-11-20T02:04:31.824Z,5.62
2018-11-20T02:07:35.469Z,5.83
2018-11-20T02:10:29.597Z,5.65
2018-11-20T02:13:55.187Z,5.66
2018-11-20T02:16:59.454Z,5.68
2018-11-20T02:19:47.472Z,5.57
2018-11-20T02:22:50.595Z,5.51
2018-11-20T02:25:37.780Z,5.73
2018-11-20T02:28:24.549Z,5.47
2018-11-20T02:31:11.202Z,5.52
2018-11-20T02:33:57.947Z,5.63
2018-11-20T02:36:44.650Z,5.36
2018-11-20T02:39:31.265Z,5.63
2018-11-20T02:42:18.290Z,5.57
2018-11-20T02:45:05.112Z,5.28
2018-11-20T02:48:08.537Z,5.29
2018-11-20T02:51:02.326Z,5.14
2018-11-20T02:53:48.973Z,5.48
2018-11-20T02:56:29.652Z,5.35
2018-11-20T02:59:29.480Z,5.25
2018-11-20T03:02:11.029Z,5.24
2018-11-20T03:05:01.884Z,5.25
2018-11-20T03:07:48.596Z,5.37
2018-11-20T03:10:28.817Z,5.35
2018-11-20T03:13:15.729Z,5.39
2018-11-20T03:16:18.693Z,5.48
2018-11-20T03:19:09.537Z,5.46
2018-11-20T03:22:09.951Z,5.43
2018-11-20T03:24:49.904Z,5.49
2018-11-20T03:27:35.883Z,5.35
2018-11-20T03:31:09.606Z,5.13
2018-11-20T03:33:58.178Z,5.39
2018-11-20T03:36:45.162Z,5.45
2018-11-20T03:39:32.378Z,5.50
2018-11-20T03:42:26.339Z,5.57
2018-11-20T03:45:13.041Z,5.61
2018-11-20T03:48:00.026Z,5.61
2018-11-20T03:50:46.964Z,5.63
2018-11-20T03:53:32.643Z,5.34
2018-11-20T03:56:29.413Z,5.31
2018-11-20T03:59:16.306Z,5.37
2018-11-20T04:01:52.299Z,5.57
2018-11-20T04:04:40.328Z,5.60
2018-11-20T04:07:25.985Z,5.59
2018-11-20T04:10:03.076Z,5.64
2018-11-20T04:12:39.417Z,5.44
2018-11-20T04:15:33.712Z,5.59
2018-11-20T04:18:24.681Z,5.73
2018-11-20T04:21:12.730Z,5.70
2018-11-20T04:24:16.044Z,5.67
2018-11-20T04:27:16.288Z,5.57
2018-11-20T04:29:55.909Z,5.48
2018-11-20T04:32:35.059Z,5.57
2018-11-20T04:35:24.028Z,5.28
2018-11-20T04:38:24.092Z,5.26
2018-11-20T04:41:10.877Z,5.43
2018-11-20T04:44:01.512Z,5.37
2018-11-20T04:46:56.765Z,5.52
2018-11-20T04:49:38.187Z,5.61
2018-11-20T04:52:38.340Z,5.38
2018-11-20T04:55:29.296Z,5.13
2018-11-20T04:58:14.035Z,5.18
2018-11-20T05:01:01.110Z,5.13
2018-11-20T05:03:52.213Z,5.35
2018-11-20T05:06:45.274Z,5.41
2018-11-20T05:09:30.808Z,5.16
2018-11-20T05:12:13.915Z,5.27
2018-11-20T05:14:53.552Z,5.22
2018-11-20T05:17:47.499Z,5.38
2018-11-20T05:20:34.337Z,5.40
2018-11-20T05:23:22.367Z,5.35
2018-11-20T05:26:13.075Z,5.37
2018-11-20T05:29:10.214Z,5.16
2018-11-20T05:31:52.414Z,5.14
2018-11-20T05:34:46.192Z,5.08
2018-11-20T05:37:23.879Z,5.25
2018-11-20T05:40:10.717Z,5.30
2018-11-20T05:42:57.443Z,5.14
2018-11-20T05:45:44.297Z,5.31
2018-11-20T05:48:31.152Z,5.28
2018-11-20T05:51:25.575Z,5.37
2018-11-20T05:54:12.645Z,5.23
2018-11-20T05:56:51.578Z,5.04
2018-11-20T05:59:38.665Z,4.98
2018-11-20T06:02:24.271Z,5.00
2018-11-20T06:05:30.214Z,5.32
2018-11-20T06:08:21.281Z,5.05
2018-11-20T06:11:08.407Z,5.07
2018-11-20T06:13:57.768Z,4.80
2018-11-20T06:17:00.908Z,4.89
2018-11-20T06:20:05.226Z,4.88
2018-11-20T06:22:52.329Z,4.75
2018-11-20T06:25:45.709Z,4.88
2018-11-20T06:28:52.517Z,4.78
2018-11-20T06:31:58.776Z,4.60
2018-11-20T06:34:55.749Z,5.03
2018-11-20T06:37:42.191Z,4.71
2018-11-20T06:40:28.938Z,4.64
2018-11-20T06:43:15.641Z,4.65
2018-11-20T06:46:07.158Z,4.76
2018-11-20T06:48:54.226Z,4.81
2018-11-20T06:51:37.141Z,4.71
2018-11-20T06:54:23.881Z,4.61
2018-11-20T06:57:06.161Z,4.96
2018-11-20T06:59:52.305Z,5.03
2018-11-20T07:02:45.298Z,5.00
2018-11-20T07:05:36.483Z,5.06
2018-11-20T07:08:22.242Z,5.08
2018-11-20T07:11:06.398Z,5.00
2018-11-20T07:14:00.816Z,4.87
2018-11-20T07:17:06.307Z,5.05
2018-11-20T07:20:15.004Z,4.83
2018-11-20T07:23:05.570Z,4.66
2018-11-20T07:25:52.036Z,4.62
2018-11-20T07:28:38.920Z,4.98
2018-11-20T07:31:27.051Z,5.18
2018-11-20T07:34:12.832Z,5.36
2018-11-20T07:37:07.152Z,5.22
2018-11-20T07:39:55.067Z,5.06
2018-11-20T07:42:52.875Z,5.02
2018-11-20T07:45:39.498Z,5.16
2018-11-20T07:48:30.854Z,5.00
2018-11-20T07:51:23.513Z,5.08
2018-11-20T07:54:10.499Z,4.92
2018-11-20T07:56:57.083Z,4.97
2018-11-20T07:59:45.298Z,4.83
2018-11-20T08:02:32.428Z,5.09
2018-11-20T08:05:39.042Z,4.98
2018-11-20T08:08:21.206Z,4.73
2018-11-20T08:11:15.383Z,4.54
2018-11-20T08:14:04.922Z,4.40
2018-11-20T08:16:51.724Z,4.60
2018-11-20T08:19:39.765Z,4.20
2018-11-20T08:22:41.517Z,4.60
2018-11-20T08:25:47.994Z,4.66
2018-11-20T08:28:36.127Z,4.58
2018-11-20T08:31:39.180Z,4.34
2018-11-20T08:34:27.232Z,4.41
2018-11-20T08:37:13.890Z,4.72
2018-11-20T08:40:00.977Z,4.81
2018-11-20T08:42:49.040Z,4.56
2018-11-20T08:45:30.071Z,4.81
2018-11-20T08:48:12.353Z,4.79
2018-11-20T08:50:59.450Z,4.75
2018-11-20T08:53:47.646Z,4.81
2018-11-20T08:56:34.553Z,4.81
2018-11-20T08:59:11.960Z,4.53
2018-11-20T09:01:58.928Z,4.82
2018-11-20T09:04:46.157Z,5.04
2018-11-20T09:07:52.314Z,5.05
2018-11-20T09:10:55.731Z,4.84
2018-11-20T09:13:49.549Z,4.63
2018-11-20T09:16:47.922Z,4.70
2018-11-20T09:19:30.826Z,4.81
2018-11-20T09:22:21.645Z,4.82
2018-11-20T09:24:59.319Z,4.36
2018-11-20T09:27:46.147Z,4.79
2018-11-20T09:30:33.151Z,4.76
2018-11-20T09:33:24.171Z,4.76
2018-11-20T09:36:16.908Z,4.75
2018-11-20T09:39:08.428Z,4.48
2018-11-20T09:41:55.479Z,4.74
2018-11-20T09:45:11.126Z,5.19
2018-11-20T09:48:05.613Z,5.04
2018-11-20T09:50:53.089Z,4.86
2018-11-20T09:53:40.030Z,5.04
2018-11-20T09:56:28.097Z,5.03
2018-11-20T09:59:12.714Z,5.22
2018-11-20T10:02:12.866Z,4.96
2018-11-20T10:05:03.781Z,4.69
2018-11-20T10:07:50.637Z,4.80
2018-11-20T10:10:51.101Z,5.21
2018-11-20T10:13:54.650Z,4.81
2018-11-20T10:16:34.258Z,4.97
2018-11-20T10:19:37.561Z,5.09
2018-11-20T10:22:24.602Z,5.20
2018-11-20T10:25:15.671Z,5.10
2018-11-20T10:28:13.029Z,5.42
2018-11-20T10:31:13.042Z,5.45
2018-11-20T10:34:19.648Z,5.23
2018-11-20T10:37:03.151Z,5.39
2018-11-20T10:39:50.541Z,5.28
2018-11-20T10:42:35.229Z,5.26
2018-11-20T10:45:30.538Z,5.36
2018-11-20T10:48:13.973Z,5.39
2018-11-20T10:51:01.168Z,5.13
2018-11-20T10:54:01.533Z,5.01
2018-11-20T10:56:52.348Z,5.05
2018-11-20T10:59:58.622Z,5.13
2018-11-20T11:02:45.661Z,5.07
2018-11-20T11:05:52.136Z,5.37
2018-11-20T11:08:40.246Z,5.36
2018-11-20T11:11:33.928Z,5.61
2018-11-20T11:14:25.226Z,5.40
2018-11-20T11:17:11.922Z,5.46
2018-11-20T11:20:01.478Z,5.50
2018-11-20T11:22:49.537Z,5.60
2018-11-20T11:25:34.049Z,5.44
2018-11-20T11:28:31.147Z,5.61
2018-11-20T11:31:32.364Z,5.66
2018-11-20T11:34:20.922Z,5.19
2018-11-20T11:37:18.254Z,5.47
2018-11-20T11:39:52.511Z,5.45
2018-11-20T11:42:39.320Z,5.42
2018-11-20T11:45:27.355Z,5.57
2018-11-20T11:48:16.972Z,5.27
2018-11-20T11:51:05.417Z,5.35
2018-11-20T11:54:00.066Z,5.19
2018-11-20T11:56:57.156Z,5.46
2018-11-20T11:59:51.222Z,5.37
2018-11-20T12:05:28.516Z,5.72
2018-11-20T12:08:21.981Z,5.67
2018-11-20T12:11:12.987Z,5.88
2018-11-20T12:14:19.396Z,5.86
2018-11-20T12:17:17.241Z,5.68
2018-11-20T12:20:04.233Z,5.39
2018-11-20T12:22:48.093Z,5.73
2018-11-20T12:25:51.689Z,5.55
2018-11-20T12:28:43.256Z,5.45
2018-11-20T12:31:37.130Z,5.37
2018-11-20T12:34:23.868Z,5.39
2018-11-20T12:37:13.863Z,5.46
2018-11-20T12:40:00.635Z,5.58
2018-11-20T12:43:01.641Z,5.83
2018-11-20T12:46:01.479Z,5.52
2018-11-20T12:48:48.168Z,5.91
2018-11-20T12:51:48.833Z,5.79
2018-11-20T12:54:39.178Z,5.46
2018-11-20T12:57:42.459Z,5.46
2018-11-20T13:00:29.535Z,5.58
2018-11-20T13:03:32.986Z,5.90
2018-11-20T13:06:12.395Z,5.30
2018-11-20T13:09:03.297Z,5.47
2018-11-20T13:11:54.028Z,5.40
2018-11-20T13:14:42.144Z,5.39
2018-11-20T13:17:40.726Z,5.56
2018-11-20T13:20:29.500Z,5.32
2018-11-20T13:23:21.314Z,5.68
2018-11-20T13:26:13.316Z,5.79
2018-11-20T13:28:50.838Z,5.96
2018-11-20T13:31:37.545Z,5.99
2018-11-20T13:34:21.001Z,5.90
2018-11-20T13:37:04.716Z,5.73
2018-11-20T13:40:11.070Z,5.78
2018-11-20T13:42:55.516Z,5.73
2018-11-20T13:45:46.943Z,5.82
2018-11-20T13:48:33.750Z,5.94
2018-11-20T13:51:15.231Z,6.11
2018-11-20T13:53:56.515Z,5.97
2018-11-20T13:56:44.638Z,5.80
2018-11-20T13:59:50.816Z,5.87
2018-11-20T14:02:32.309Z,5.91
2018-11-20T14:05:32.622Z,5.83
2018-11-20T14:08:09.603Z,5.81
2018-11-20T14:11:00.696Z,5.88
2018-11-20T14:13:48.716Z,5.85
2018-11-20T14:16:35.618Z,5.83
2018-11-20T14:19:18.310Z,5.91
2018-11-20T14:22:01.813Z,6.08
2018-11-20T14:24:45.477Z,5.99
2018-11-20T14:27:33.485Z,5.87
2018-11-20T14:30:27.617Z,6.00
2018-11-20T14:33:30.690Z,6.05
2018-11-20T14:36:17.754Z,5.91
2018-11-20T14:39:08.683Z,6.04
2018-11-20T14:41:56.794Z,5.83
2018-11-20T14:44:44.855Z,5.82
2018-11-20T14:47:35.690Z,6.00
2018-11-20T14:50:25.039Z,6.17
2018-11-20T14:53:13.073Z,5.75
2018-11-20T14:56:00.206Z,5.74
2018-11-20T14:58:38.071Z,5.66
2018-11-20T15:01:38.251Z,5.68
2018-11-20T15:04:25.301Z,5.58
2018-11-20T15:07:00.936Z,5.30
2018-11-20T15:09:49.369Z,5.34
2018-11-20T15:12:31.595Z,4.75
2018-11-20T15:15:28.931Z,4.98
2018-11-20T15:18:11.062Z,4.66
2018-11-20T15:20:57.899Z,4.55
2018-11-20T15:23:44.324Z,4.37
2018-11-20T15:26:31.530Z,4.87
2018-11-20T15:29:22.578Z,5.81
2018-11-20T15:32:13.524Z,5.29
2018-11-20T15:35:00.626Z,5.04
2018-11-20T15:37:51.966Z,4.94
2018-11-20T15:40:37.551Z,4.66
2018-11-20T15:43:31.607Z,4.48
2018-11-20T15:46:22.954Z,4.59
2018-11-20T15:49:23.653Z,4.38
2018-11-20T15:52:11.555Z,4.41
2018-11-20T15:55:11.421Z,4.65
2018-11-20T15:58:08.579Z,4.61
2018-11-20T16:00:55.442Z,4.61
2018-11-20T16:03:53.239Z,4.75
2018-11-20T16:06:39.917Z,4.57
2018-11-20T16:09:37.389Z,4.44
2018-11-20T16:12:24.454Z,4.33
2018-11-20T16:15:12.537Z,4.34
2018-11-20T16:17:59.471Z,4.22
2018-11-20T16:20:50.246Z,4.11
2018-11-20T16:23:43.760Z,3.91
2018-11-20T16:26:30.758Z,3.94
2018-11-20T16:29:17.796Z,4.12
2018-11-20T16:32:17.933Z,4.07
2018-11-20T16:35:11.929Z,3.92
2018-11-20T16:37:56.799Z,3.92
2018-11-20T16:40:43.644Z,4.03
2018-11-20T16:43:27.797Z,4.12
2018-11-20T16:46:15.132Z,4.14
2018-11-20T16:49:02.281Z,4.11
2018-11-20T16:51:53.100Z,4.30
2018-11-20T16:54:43.929Z,4.30
2018-11-20T16:57:30.680Z,4.28
2018-11-20T17:00:17.737Z,4.08
2018-11-20T17:03:15.215Z,4.23
2018-11-20T17:06:02.276Z,4.18
2018-11-20T17:08:56.539Z,4.11
2018-11-20T17:11:47.434Z,4.21
2018-11-20T17:14:28.616Z,4.10
2018-11-20T17:17:13.241Z,4.18
2018-11-20T17:19:50.539Z,4.39
2018-11-20T17:22:37.620Z,4.05
2018-11-20T17:25:25.182Z,4.15
2018-11-20T17:28:11.924Z,4.28
2018-11-20T17:30:55.736Z,4.35
2018-11-20T17:33:56.192Z,4.63
2018-11-20T17:36:52.709Z,4.10
2018-11-20T17:39:42.011Z,4.47
2018-11-20T17:42:41.517Z,4.15
2018-11-20T17:45:22.679Z,4.36
2018-11-20T17:48:02.183Z,4.05
2018-11-20T17:51:02.462Z,4.22
2018-11-20T17:53:49.430Z,4.01
2018-11-20T17:56:36.440Z,4.13
2018-11-20T17:59:12.975Z,4.20
2018-11-20T18:01:49.867Z,4.05
2018-11-20T18:04:37.891Z,4.11
2018-11-20T18:07:32.151Z,4.15
2018-11-20T18:10:29.162Z,4.21
2018-11-20T18:13:16.436Z,4.27
2018-11-20T18:16:13.832Z,4.17
2018-11-20T18:18:58.589Z,3.92
2018-11-20T18:21:45.456Z,4.03
2018-11-20T18:24:24.492Z,4.39
2018-11-20T18:27:00.990Z,4.14
2018-11-20T18:29:52.080Z,4.14
2018-11-20T18:32:40.885Z,4.12
2018-11-20T18:35:27.351Z,4.21
2018-11-20T18:38:15.142Z,4.34
2018-11-20T18:41:06.733Z,4.01
2018-11-20T18:43:54.797Z,4.08
2018-11-20T18:46:41.461Z,4.23
2018-11-20T18:49:28.363Z,4.33
2018-11-20T18:52:07.029Z,4.54
2018-11-20T18:55:10.211Z,4.22
2018-11-20T18:57:51.248Z,4.39
2018-11-20T19:00:42.287Z,4.31
2018-11-20T19:03:28.985Z,4.39
2018-11-20T19:06:26.400Z,4.33
2018-11-20T19:09:22.067Z,4.10
2018-11-20T19:12:25.400Z,4.28
2018-11-20T19:15:28.718Z,4.04
2018-11-20T19:18:15.536Z,4.32
2018-11-20T19:20:55.066Z,4.13
2018-11-20T19:23:58.059Z,3.95
2018-11-20T19:26:32.694Z,4.21
2018-11-20T19:29:17.452Z,4.24
2018-11-20T19:32:20.745Z,4.23
2018-11-20T19:34:59.884Z,4.33
2018-11-20T19:37:43.707Z,4.44
2018-11-20T19:40:49.910Z,4.41
2018-11-20T19:43:37.262Z,4.62
2018-11-20T19:46:27.629Z,4.73
2018-11-20T19:49:31.499Z,4.72
2018-11-20T19:52:36.062Z,4.60
2018-11-20T19:55:26.023Z,4.45
2018-11-20T19:58:28.537Z,4.77
2018-11-20T20:01:25.396Z,4.61
2018-11-20T20:04:17.727Z,4.66
2018-11-20T20:07:05.875Z,4.65
2018-11-20T20:09:54.285Z,4.20
2018-11-20T20:12:35.450Z,4.36
2018-11-20T20:15:32.885Z,4.40
2018-11-20T20:18:32.117Z,4.63
2018-11-20T20:21:18.697Z,4.44
2018-11-20T20:24:07.757Z,4.35
2018-11-20T20:26:59.447Z,4.37
2018-11-20T20:29:46.755Z,4.15
2018-11-20T20:32:46.621Z,4.18
2018-11-20T20:35:39.315Z,4.41
2018-11-20T20:38:42.986Z,4.23
2018-11-20T20:41:38.744Z,4.52
2018-11-20T20:44:40.678Z,4.34
2018-11-20T20:47:42.980Z,4.44
2018-11-20T20:50:34.013Z,4.48
2018-11-20T20:53:40.655Z,4.26
2018-11-20T20:56:42.383Z,4.49
2018-11-20T20:59:33.158Z,4.44
2018-11-20T21:02:41.571Z,4.35
2018-11-20T21:05:34.865Z,4.49
2018-11-20T21:08:25.730Z,4.55
2018-11-20T21:11:18.543Z,4.40
2018-11-20T21:14:14.829Z,4.43
2018-11-20T21:16:54.100Z,4.56
2018-11-20T21:19:59.563Z,4.50
2018-11-20T21:22:47.878Z,4.55
2018-11-20T21:25:37.023Z,4.62
2018-11-20T21:28:28.917Z,4.68
2018-11-20T21:31:21.390Z,4.60
2018-11-20T21:34:29.102Z,4.73
2018-11-20T21:37:17.710Z,4.44
2018-11-20T21:40:15.518Z,4.39
2018-11-20T21:43:04.655Z,4.57
2018-11-20T21:46:06.278Z,4.53
2018-11-20T21:49:10.960Z,4.68
2018-11-20T21:51:57.849Z,4.65
2018-11-20T21:54:44.934Z,4.57
2018-11-20T21:57:48.401Z,4.91
2018-11-20T22:01:10.883Z,4.78
2018-11-20T22:04:07.983Z,4.81
2018-11-20T22:07:08.026Z,4.74
2018-11-20T22:09:54.799Z,4.67
2018-11-20T22:12:45.569Z,4.49
2018-11-20T22:15:26.882Z,4.55
2018-11-20T22:18:29.877Z,4.50
2018-11-20T22:21:16.804Z,4.40
2018-11-20T22:24:10.693Z,4.34
2018-11-20T22:27:07.989Z,4.33
2018-11-20T22:30:05.874Z,4.32
2018-11-20T22:33:09.053Z,4.31
2018-11-20T22:35:55.945Z,4.40
2018-11-20T22:38:50.004Z,4.42
2018-11-20T22:41:47.097Z,4.58
2018-11-20T22:44:40.893Z,4.50
2018-11-20T22:47:34.759Z,4.12
2018-11-20T22:50:28.403Z,4.20
2018-11-20T22:53:28.587Z,4.57
2018-11-20T22:56:11.797Z,4.62
2018-11-20T22:59:02.515Z,4.68
2018-11-20T23:01:53.263Z,4.53
2018-11-20T23:05:02.614Z,4.53
2018-11-20T23:07:45.763Z,4.61
2018-11-20T23:10:16.701Z,4.46
2018-11-20T23:12:45.847Z,4.50
2018-11-20T23:15:15.598Z,4.57
2018-11-20T23:17:44.574Z,4.44
2018-11-20T23:20:14.071Z,4.29
2018-11-20T23:22:43.354Z,4.29
2018-11-20T23:25:13.396Z,4.42
2018-11-20T23:27:42.462Z,4.56
2018-11-20T23:30:13.337Z,4.52
2018-11-20T23:32:42.628Z,4.61
2018-11-20T23:35:12.512Z,4.63
2018-11-20T23:37:42.120Z,4.65
2018-11-20T23:40:12.256Z,4.87
2018-11-20T23:42:41.220Z,4.86
2018-11-20T23:45:12.902Z,5.04
2018-11-20T23:47:41.847Z,5.16
2018-11-20T23:50:12.294Z,5.09
2018-11-20T23:52:41.428Z,4.92
2018-11-20T23:55:12.544Z,4.92
2018-11-20T23:57:41.755Z,4.91
